Time;durP1;ratioP1;P1;durP2;ratioP2;P2;SDS_P1;SDS_P2;PMS_P1;PMS_P2;Temp;Humidity;BMP_temperature;BMP_pressure;BME280_temperature;BME280_humidity;BME280_pressure;Samples;Min_cycle;Max_cycle;Signal;HPM_P1;HPM_P2
2023/02/13 00:00:24;;;;;;;0.00;0.00;;;;;;;-145.06;100.00;53924.78;10337907;28;20466;-80
2023/02/13 00:05:25;;;;;;;0.00;0.00;;;;;;;-145.06;100.00;53884.28;10319348;28;20144;-81
2023/02/13 00:10:25;;;;;;;0.00;0.00;;;;;;;-145.06;100.00;53894.41;10336602;28;20037;-81
2023/02/13 00:15:25;;;;;;;0.00;0.00;;;;;;;-145.06;100.00;53912.63;10340334;28;20030;-81
2023/02/13 00:20:26;;;;;;;0.00;0.00;;;;;;;-145.06;100.00;53892.38;10314236;28;20125;-79
2023/02/13 00:25:26;;;;;;;0.10;0.10;;;;;;;-145.06;100.00;53892.38;10339638;28;20382;-82
2023/02/13 00:30:27;;;;;;;0.10;0.10;;;;;;;-145.06;100.00;53859.97;10317963;28;20031;-82
2023/02/13 00:35:28;;;;;;;0.00;0.00;;;;;;;-145.06;100.00;53884.28;10319464;28;20096;-81
2023/02/13 00:40:28;;;;;;;0.00;0.00;;;;;;;-145.06;100.00;53874.16;10321953;28;20073;-80
2023/02/13 00:45:29;;;;;;;0.00;0.00;;;;;;;-145.06;100.00;53902.50;10321037;28;20117;-81
2023/02/13 00:50:29;;;;;;;0.00;0.00;;;;;;;-145.06;100.00;53892.38;10329819;28;20026;-81
2023/02/13 00:55:30;;;;;;;0.10;0.10;;;;;;;-145.06;100.00;53920.75;10338173;28;20058;-81
2023/02/13 01:00:30;;;;;;;0.00;0.00;;;;;;;-145.06;100.00;53936.94;10317207;28;20031;-81
2023/02/13 01:05:31;;;;;;;0.00;0.00;;;;;;;-145.06;100.00;53900.50;10330971;28;20323;-81
2023/02/13 01:10:32;;;;;;;0.00;0.00;;;;;;;-145.06;100.00;53912.63;10319898;28;20433;-79
2023/02/13 01:15:33;;;;;;;0.00;0.00;;;;;;;-145.06;100.00;53855.94;10315648;28;20129;-81
2023/02/13 01:20:33;;;;;;;0.00;0.00;;;;;;;-145.06;100.00;53896.44;10318763;28;20717;-81
2023/02/13 01:25:34;;;;;;;0.10;0.10;;;;;;;-145.06;100.00;53908.59;10320209;28;20090;-82
2023/02/13 01:30:34;;;;;;;0.00;0.00;;;;;;;-145.06;100.00;53898.47;10330384;28;20025;-81
2023/02/13 01:35:38;;;;;;;0.00;0.00;;;;;;;-145.06;100.00;53922.75;10337104;28;20025;-79
2023/02/13 01:40:47;;;;;;;0.00;0.00;;;;;;;-145.06;100.00;53910.63;10334842;28;20023;-79
2023/02/13 01:45:53;;;;;;;0.00;0.00;;;;;;;-145.06;100.00;53880.22;10333256;28;20034;-80
2023/02/13 01:51:01;;;;;;;0.00;0.00;;;;;;;-145.06;100.00;53890.38;10317092;28;20022;-80
2023/02/13 01:56:13;;;;;;;0.00;0.00;;;;;;;-145.06;100.00;53882.25;10309141;28;20034;-79
2023/02/13 02:01:13;;;;;;;0.00;0.00;;;;;;;-145.06;100.00;53845.81;10317253;28;20027;-81
2023/02/13 02:06:20;;;;;;;0.00;0.00;;;;;;;-145.06;100.00;53878.22;10328581;23;20046;-79
2023/02/13 02:11:45;;;;;;;0.10;0.10;;;;;;;-145.06;100.00;53868.09;10329227;28;20049;-80
2023/02/13 02:16:45;;;;;;;0.10;0.10;;;;;;;-145.06;100.00;53896.44;10334659;28;20417;-79
2023/02/13 02:22:09;;;;;;;0.00;0.00;;;;;;;-145.06;100.00;53896.44;10324120;28;20062;-81
2023/02/13 02:27:16;;;;;;;;;;;;;;;-145.06;100.00;53886.31;10313963;28;20045;-81
2023/02/13 02:32:41;;;;;;;0.08;0.08;;;;;;;-145.06;100.00;53878.22;10327323;28;19957;-79
2023/02/13 02:38:01;;;;;;;0.00;0.00;;;;;;;-145.06;100.00;53880.22;10321898;28;20431;-80
2023/02/13 02:43:18;;;;;;;0.10;0.10;;;;;;;-145.06;100.00;53880.22;10322498;28;20261;-80
2023/02/13 02:55:05;;;;;;;0.10;0.10;;;;;;;-145.06;100.00;53894.41;10327725;28;20382;-80
2023/02/13 03:26:49;;;;;;;0.00;0.00;;;;;;;-145.06;100.00;53837.72;10318283;28;20030;-80
2023/02/13 03:32:11;;;;;;;0.00;0.00;;;;;;;-145.06;100.00;53872.13;10330476;28;20150;-80
2023/02/13 03:42:54;;;;;;;0.10;0.10;;;;;;;-145.06;100.00;53896.44;10332725;28;20525;-81
2023/02/13 03:47:57;;;;;;;0.00;0.00;;;;;;;-145.06;100.00;53884.28;10314941;28;20117;-80
2023/02/13 03:53:06;;;;;;;0.00;0.00;;;;;;;-145.06;100.00;53922.75;10308823;28;20023;-79
2023/02/13 04:03:34;;;;;;;;;;;;;;;-145.06;100.00;53896.44;10322587;28;20062;-79
2023/02/13 04:08:35;;;;;;;0.00;0.00;;;;;;;-145.06;100.00;53835.69;10305941;28;19921;-80
2023/02/13 04:14:01;;;;;;;0.00;0.00;;;;;;;-145.06;100.00;53872.13;10319362;28;20077;-80
2023/02/13 04:19:03;;;;;;;0.00;0.00;;;;;;;-145.06;100.00;53886.31;10299417;28;20049;-79
2023/02/13 04:24:04;;;;;;;0.00;0.00;;;;;;;-145.06;100.00;53882.25;10304293;28;20345;-79
2023/02/13 04:29:04;;;;;;;0.00;0.00;;;;;;;-145.06;100.00;53912.63;10306534;28;20073;-80
2023/02/13 04:34:05;;;;;;;0.00;0.00;;;;;;;-145.06;100.00;53908.59;10313690;28;20089;-79
2023/02/13 04:39:05;;;;;;;0.00;0.00;;;;;;;-145.06;100.00;53928.84;10301887;28;20058;-81
2023/02/13 04:44:05;;;;;;;0.00;0.00;;;;;;;-145.06;100.00;53872.13;10327814;28;20038;-80
2023/02/13 04:49:06;;;;;;;0.00;0.00;;;;;;;-145.06;100.00;53880.22;10315475;28;20030;-80
2023/02/13 04:54:06;;;;;;;0.00;0.00;;;;;;;-145.06;100.00;53882.25;10319901;28;20057;-80
2023/02/13 04:59:06;;;;;;;0.00;0.00;;;;;;;-145.06;100.00;53924.78;10320826;28;20905;-79
2023/02/13 05:04:07;;;;;;;0.00;0.00;;;;;;;-145.06;100.00;53884.28;10304504;28;20286;-79
2023/02/13 05:09:09;;;;;;;0.00;0.00;;;;;;;-145.06;100.00;53862.00;10320562;28;20266;-80
2023/02/13 05:14:10;;;;;;;0.10;0.10;;;;;;;-145.06;100.00;53908.59;10306599;28;20882;-80
2023/02/13 05:19:10;;;;;;;0.00;0.00;;;;;;;-145.06;100.00;53898.47;10312819;28;20085;-80
2023/02/13 05:24:10;;;;;;;0.00;0.00;;;;;;;-145.06;100.00;53908.59;10334108;28;20038;-81
2023/02/13 05:29:21;;;;;;;0.00;0.00;;;;;;;-145.06;100.00;53924.78;10308757;28;20804;-80
2023/02/13 05:34:24;;;;;;;0.00;0.00;;;;;;;-145.06;100.00;53853.91;10312889;28;20046;-80
2023/02/13 05:39:24;;;;;;;0.00;0.00;;;;;;;-145.06;100.00;53841.75;10304658;28;20030;-80
2023/02/13 05:44:24;;;;;;;0.00;0.00;;;;;;;-145.06;100.00;53884.28;10320873;28;20458;-81
2023/02/13 05:49:25;;;;;;;0.00;0.00;;;;;;;-145.06;100.00;53872.13;10331385;28;20030;-80
2023/02/13 05:54:25;;;;;;;0.00;0.00;;;;;;;-145.06;100.00;53886.31;10334588;28;20151;-80
2023/02/13 05:59:25;;;;;;;0.00;0.00;;;;;;;-145.06;100.00;53908.59;10330121;28;20285;-80
2023/02/13 06:04:25;;;;;;;0.00;0.00;;;;;;;-145.06;100.00;53904.53;10330065;28;20123;-80
2023/02/13 06:09:26;;;;;;;0.00;0.00;;;;;;;-145.06;100.00;53878.22;10322381;28;20052;-80
2023/02/13 06:14:26;;;;;;;0.03;0.03;;;;;;;-145.06;100.00;53876.19;10328381;28;20284;-79
2023/02/13 06:19:26;;;;;;;0.00;0.00;;;;;;;-145.06;100.00;53888.34;10308660;28;20030;-80
2023/02/13 06:24:27;;;;;;;0.00;0.00;;;;;;;-145.06;100.00;53882.25;10288372;28;20045;-80
2023/02/13 06:29:27;;;;;;;0.00;0.00;;;;;;;-145.06;100.00;53880.22;10316598;28;20038;-80
2023/02/13 06:34:27;;;;;;;0.00;0.00;;;;;;;-145.06;100.00;53906.56;10313629;28;20065;-80
2023/02/13 06:39:28;;;;;;;0.00;0.00;;;;;;;-145.06;100.00;53920.75;10311841;28;20116;-80
2023/02/13 06:44:28;;;;;;;0.00;0.00;;;;;;;-145.06;100.00;53864.03;10324806;28;20486;-80
2023/02/13 06:49:28;;;;;;;0.00;0.00;;;;;;;-145.06;100.00;53900.50;10323217;28;20050;-80
2023/02/13 06:54:28;;;;;;;0.00;0.00;;;;;;;-145.06;100.00;53855.94;10322560;28;20055;-79
2023/02/13 06:59:29;;;;;;;0.00;0.00;;;;;;;-145.06;100.00;53864.03;10308894;28;20350;-80
2023/02/13 07:04:29;;;;;;;0.08;0.08;;;;;;;-145.06;100.00;53892.38;10310755;28;20039;-78
2023/02/13 07:09:30;;;;;;;0.10;0.10;;;;;;;-145.06;100.00;53880.22;10313637;28;20055;-78
2023/02/13 07:14:31;;;;;;;0.00;0.00;;;;;;;-145.06;100.00;53902.50;10321863;28;20062;-79
2023/02/13 07:19:31;;;;;;;0.00;0.00;;;;;;;-145.06;100.00;53876.19;10323556;28;20027;-78
2023/02/13 07:24:34;;;;;;;0.00;0.00;;;;;;;-145.06;100.00;53934.91;10314160;28;20293;-80
2023/02/13 07:29:34;;;;;;;0.00;0.00;;;;;;;-145.06;100.00;53894.41;10296280;28;20129;-81
2023/02/13 07:34:34;;;;;;;0.00;0.00;;;;;;;-145.06;100.00;53908.59;10311367;28;20042;-81
2023/02/13 07:39:37;;;;;;;0.00;0.00;;;;;;;-145.06;100.00;53876.19;10310920;28;20035;-80
2023/02/13 07:44:38;;;;;;;0.00;0.00;;;;;;;-145.06;100.00;53892.38;10311111;28;20034;-80
2023/02/13 07:49:38;;;;;;;0.00;0.00;;;;;;;-145.06;100.00;53908.59;10295708;28;20073;-79
2023/02/13 07:54:45;;;;;;;0.00;0.00;;;;;;;-145.06;100.00;53872.13;10312705;28;20968;-78
2023/02/13 07:59:46;;;;;;;0.00;0.00;;;;;;;-145.06;100.00;53847.84;10307474;28;20037;-80
2023/02/13 08:04:46;;;;;;;0.00;0.00;;;;;;;-145.06;100.00;53890.38;10326749;23;20050;-79
2023/02/13 08:15:06;;;;;;;0.00;0.00;;;;;;;-145.06;100.00;53849.84;10354345;28;20038;-78
2023/02/13 08:20:07;;;;;;;0.00;0.00;;;;;;;-145.06;100.00;53851.88;10348576;28;20027;-78
2023/02/13 08:25:07;;;;;;;0.00;0.00;;;;;;;-145.06;100.00;53868.09;10333362;28;20033;-78
2023/02/13 08:30:09;;;;;;;0.00;0.00;;;;;;;-145.06;100.00;53872.13;10357406;28;20038;-79
2023/02/13 08:35:09;;;;;;;0.00;0.00;;;;;;;-145.06;100.00;53886.31;10324528;28;20084;-79
2023/02/13 08:40:10;;;;;;;0.00;0.00;;;;;;;-145.06;100.00;53870.09;10326663;28;20030;-78
2023/02/13 08:45:10;;;;;;;0.00;0.00;;;;;;;-145.06;100.00;53835.69;10337889;28;20052;-77
2023/02/13 08:50:11;;;;;;;0.00;0.00;;;;;;;-145.06;100.00;53827.59;10342643;28;20423;-79
2023/02/13 08:55:11;;;;;;;0.10;0.10;;;;;;;-145.06;100.00;53876.19;10327306;28;20503;-79
2023/02/13 09:00:12;;;;;;;0.00;0.00;;;;;;;-145.06;100.00;53837.72;10335015;28;20030;-79
2023/02/13 09:05:12;;;;;;;0.00;0.00;;;;;;;-145.06;100.00;53880.22;10336720;28;20040;-78
2023/02/13 09:10:13;;;;;;;0.00;0.00;;;;;;;-145.06;100.00;53884.28;10314914;28;20030;-79
2023/02/13 09:15:13;;;;;;;0.00;0.00;;;;;;;-145.06;100.00;53898.47;10349830;28;20837;-78
2023/02/13 09:20:13;;;;;;;0.00;0.00;;;;;;;-145.06;100.00;53864.03;10322896;28;20023;-79
2023/02/13 09:25:14;;;;;;;0.00;0.00;;;;;;;-145.06;100.00;53855.94;10332525;28;20277;-79
2023/02/13 09:30:21;;;;;;;0.00;0.00;;;;;;;-145.06;100.00;53864.03;10325006;28;20062;-79
2023/02/13 09:35:22;;;;;;;0.00;0.00;;;;;;;-145.06;100.00;53896.44;10323200;28;20034;-78
2023/02/13 09:40:28;;;;;;;0.00;0.00;;;;;;;-145.06;100.00;53855.94;10319148;28;20030;-79
2023/02/13 09:45:28;;;;;;;0.00;0.00;;;;;;;-145.06;100.00;53855.94;10345250;28;20030;-79
2023/02/13 09:50:32;;;;;;;0.03;0.03;;;;;;;-145.06;100.00;53855.94;10322289;28;20109;-78
2023/02/13 09:55:51;;;;;;;0.00;0.00;;;;;;;-145.06;100.00;53890.38;10361163;28;20053;-79
2023/02/13 10:00:56;;;;;;;0.00;0.00;;;;;;;-145.06;100.00;53868.09;10319871;28;20030;-79
2023/02/13 10:06:33;;;;;;;0.00;0.00;;;;;;;-145.06;100.00;53868.09;10354000;28;20045;-78
2023/02/13 10:12:11;;;;;;;0.00;0.00;;;;;;;-145.06;100.00;53894.41;10343743;28;20116;-78
2023/02/13 10:17:34;;;;;;;0.00;0.00;;;;;;;-145.06;100.00;53857.97;10319971;28;20026;-79
2023/02/13 10:22:50;;;;;;;0.00;0.00;;;;;;;-145.06;100.00;53827.59;10352213;28;20034;-79
2023/02/13 10:28:10;;;;;;;0.00;0.00;;;;;;;-145.06;100.00;53888.34;10351249;28;20031;-78
2023/02/13 10:33:19;;;;;;;0.03;0.03;;;;;;;-145.06;100.00;53884.28;10341925;28;20030;-78
2023/02/13 10:38:22;;;;;;;0.00;0.00;;;;;;;-145.06;100.00;53888.34;10317131;28;20041;-80
2023/02/13 10:43:27;;;;;;;0.10;0.10;;;;;;;-145.06;100.00;53904.53;10327580;28;20039;-79
2023/02/13 10:48:27;;;;;;;;;;;;;;;-145.06;100.00;53845.81;10337323;28;20088;-79
2023/02/13 10:53:57;;;;;;;0.00;0.00;;;;;;;-145.06;100.00;53872.13;10328353;28;19956;-79
2023/02/13 10:59:23;;;;;;;0.00;0.00;;;;;;;-145.06;100.00;53876.19;10331841;28;20505;-79
2023/02/13 11:04:24;;;;;;;0.00;0.00;;;;;;;-145.06;100.00;53888.34;10331449;28;20034;-80
2023/02/13 11:09:25;;;;;;;0.03;0.03;;;;;;;-145.06;100.00;53855.94;10356227;28;20030;-79
2023/02/13 11:14:26;;;;;;;0.03;0.03;;;;;;;-145.06;100.00;53857.97;10326607;28;20108;-79
2023/02/13 11:19:37;;;;;;;0.00;0.00;;;;;;;-145.06;100.00;53827.59;10332883;28;20512;-80
2023/02/13 11:24:52;;;;;;;0.00;0.00;;;;;;;-145.06;100.00;53862.00;10330949;28;20405;-79
2023/02/13 11:29:56;;;;;;;0.10;0.10;;;;;;;-145.06;100.00;53807.31;10330326;28;20030;-80
2023/02/13 11:34:57;;;;;;;0.10;0.10;;;;;;;-145.06;100.00;53855.94;10314489;28;20073;-79
2023/02/13 11:39:59;;;;;;;0.10;0.10;;;;;;;-145.06;100.00;53855.94;10325943;28;20034;-79
2023/02/13 11:45:05;;;;;;;0.10;0.10;;;;;;;-145.06;100.00;53835.69;10324183;28;20056;-80
2023/02/13 11:50:31;;;;;;;0.00;0.00;;;;;;;-145.06;100.00;53864.03;10318201;28;20030;-79
2023/02/13 11:55:34;;;;;;;0.10;0.10;;;;;;;-145.06;100.00;53868.09;10350446;28;20034;-79
2023/02/13 12:00:38;;;;;;;0.00;0.00;;;;;;;-145.06;100.00;53872.13;10337847;28;20038;-78
2023/02/13 12:05:39;;;;;;;0.10;0.10;;;;;;;-145.06;100.00;53882.25;10342788;28;20218;-80
2023/02/13 12:10:39;;;;;;;0.10;0.10;;;;;;;-145.06;100.00;53841.75;10338441;28;20037;-80
2023/02/13 12:15:41;;;;;;;0.00;0.00;;;;;;;-145.06;100.00;53888.34;10371412;28;20033;-79
2023/02/13 12:20:56;;;;;;;0.10;0.10;;;;;;;-145.06;100.00;53884.28;10345970;28;20100;-78
2023/02/13 12:26:20;;;;;;;0.08;0.08;;;;;;;-145.06;100.00;53904.53;10343741;28;20042;-79
2023/02/13 12:32:02;;;;;;;0.00;0.00;;;;;;;-145.06;100.00;53864.03;10332194;28;20043;-79
2023/02/13 12:37:34;;;;;;;0.00;0.00;;;;;;;-145.06;100.00;53868.09;10315109;28;20044;-80
2023/02/13 12:42:53;;;;;;;0.00;0.00;;;;;;;-145.06;100.00;53874.16;10350406;28;20431;-79
2023/02/13 12:48:22;;;;;;;0.10;0.10;;;;;;;-145.06;100.00;53851.88;10341862;28;20057;-80
2023/02/13 12:53:43;;;;;;;0.00;0.00;;;;;;;-145.06;100.00;53811.38;10328452;28;20096;-79
2023/02/13 12:58:56;;;;;;;0.00;0.00;;;;;;;-145.06;100.00;53904.53;10351030;28;20125;-79
2023/02/13 13:04:17;;;;;;;0.10;0.10;;;;;;;-145.06;100.00;53837.72;10330940;28;20037;-79
2023/02/13 13:09:42;;;;;;;0.00;0.00;;;;;;;-145.06;100.00;53876.19;10359159;28;20037;-79
2023/02/13 13:14:57;;;;;;;0.00;0.00;;;;;;;-145.06;100.00;53821.50;10319628;28;20062;-79
2023/02/13 13:20:21;;;;;;;0.10;0.10;;;;;;;-145.06;100.00;53837.72;10338671;28;20026;-80
2023/02/13 13:25:35;;;;;;;0.10;0.10;;;;;;;-145.06;100.00;53851.88;10314692;28;20524;-79
2023/02/13 13:30:36;;;;;;;0.00;0.00;;;;;;;-145.06;100.00;53847.84;10342629;28;20026;-79
2023/02/13 13:35:42;;;;;;;0.00;0.00;;;;;;;-145.06;100.00;53855.94;10325347;28;20037;-79
2023/02/13 13:40:48;;;;;;;0.00;0.00;;;;;;;-145.06;100.00;53866.06;10322552;28;20484;-79
2023/02/13 13:46:26;;;;;;;0.00;0.00;;;;;;;-145.06;100.00;53878.22;10344629;28;20035;-79
2023/02/13 13:51:26;;;;;;;0.00;0.00;;;;;;;-145.06;100.00;53859.97;10348302;28;20041;-78
2023/02/13 13:56:52;;;;;;;0.10;0.10;;;;;;;-145.06;100.00;53847.84;10335674;28;20042;-79
2023/02/13 14:02:15;;;;;;;0.00;0.00;;;;;;;-145.06;100.00;53833.66;10329922;28;20374;-79
2023/02/13 14:07:23;;;;;;;0.00;0.00;;;;;;;-145.06;100.00;53912.63;10314872;28;20042;-80
2023/02/13 14:12:23;;;;;;;0.05;0.05;;;;;;;-145.06;100.00;53825.56;10351869;28;20097;-77
2023/02/13 14:17:45;;;;;;;0.00;0.00;;;;;;;-145.06;100.00;53862.00;10340098;28;20270;-79
2023/02/13 14:22:45;;;;;;;0.00;0.00;;;;;;;-145.06;100.00;53825.56;10330853;28;20069;-79
2023/02/13 14:27:56;;;;;;;0.10;0.10;;;;;;;-145.06;100.00;53847.84;10358805;23;20081;-76
2023/02/13 14:33:01;;;;;;;0.00;0.00;;;;;;;-145.06;100.00;53845.81;10312221;28;20301;-75
2023/02/13 14:38:06;;;;;;;0.00;0.00;;;;;;;-145.06;100.00;53853.91;10274757;28;20027;-79
2023/02/13 14:43:22;;;;;;;0.00;0.00;;;;;;;-145.06;100.00;53868.09;10248982;28;20036;-77
2023/02/13 14:48:34;;;;;;;0.00;0.00;;;;;;;-145.06;100.00;53859.97;10268803;28;20039;-77
2023/02/13 14:53:50;;;;;;;0.10;0.10;;;;;;;-145.06;100.00;53884.28;10263864;28;20069;-79
2023/02/13 14:58:58;;;;;;;0.00;0.00;;;;;;;-145.06;100.00;53912.63;10270559;28;20043;-76
2023/02/13 15:04:09;;;;;;;0.00;0.00;;;;;;;-145.06;100.00;53900.50;10276952;28;20035;-77
2023/02/13 15:09:34;;;;;;;0.00;0.00;;;;;;;-145.06;100.00;53890.38;10274624;28;20379;-77
2023/02/13 15:14:36;;;;;;;0.00;0.00;;;;;;;-145.06;100.00;53884.28;10277521;28;20124;-77
2023/02/13 15:19:42;;;;;;;0.00;0.00;;;;;;;-145.06;100.00;53851.88;10257372;28;20073;-77
2023/02/13 15:24:46;;;;;;;0.00;0.00;;;;;;;-145.06;100.00;53868.09;10268230;28;20470;-76
2023/02/13 15:29:54;;;;;;;0.28;0.28;;;;;;;-145.06;100.00;53817.47;10258561;28;20035;-77
2023/02/13 15:34:54;;;;;;;0.00;0.00;;;;;;;-145.06;100.00;53823.53;10268950;28;20045;-78
2023/02/13 15:39:55;;;;;;;0.00;0.00;;;;;;;-145.06;100.00;53884.28;10273234;28;20035;-78
2023/02/13 15:44:57;;;;;;;0.00;0.00;;;;;;;-145.06;100.00;53835.69;10269044;28;20022;-78
2023/02/13 15:49:57;;;;;;;0.00;0.00;;;;;;;-145.06;100.00;53847.84;10279999;28;20042;-77
2023/02/13 15:54:58;;;;;;;0.03;0.03;;;;;;;-145.06;100.00;53868.09;10276637;28;20389;-78
2023/02/13 16:00:00;;;;;;;0.00;0.00;;;;;;;-145.06;100.00;53898.47;10278809;28;20051;-77
2023/02/13 16:05:01;;;;;;;0.00;0.00;;;;;;;-145.06;100.00;53849.84;10258829;28;20354;-78
2023/02/13 16:10:24;;;;;;;0.10;0.10;;;;;;;-145.06;100.00;53880.22;10270965;28;20586;-77
2023/02/13 16:15:28;;;;;;;0.00;0.00;;;;;;;-145.06;100.00;53853.91;10260186;28;20037;-78
2023/02/13 16:20:31;;;;;;;0.10;0.10;;;;;;;-145.06;100.00;53864.03;10292759;28;20102;-82
2023/02/13 16:25:37;;;;;;;0.00;0.00;;;;;;;-145.06;100.00;53868.09;10257078;28;20134;-82
2023/02/13 16:30:51;;;;;;;0.00;0.00;;;;;;;-145.06;100.00;53878.22;10277760;28;20094;-82
2023/02/13 16:35:57;;;;;;;0.00;0.00;;;;;;;-145.06;100.00;53878.22;10261066;28;20066;-82
2023/02/13 16:41:04;;;;;;;0.00;0.00;;;;;;;-145.06;100.00;53884.28;10289848;28;20285;-83
2023/02/13 16:46:13;;;;;;;0.00;0.00;;;;;;;-145.06;100.00;53857.97;10291580;28;20492;-80
2023/02/13 16:51:23;;;;;;;0.00;0.00;;;;;;;-145.06;100.00;53868.09;10278823;28;20031;-81
2023/02/13 16:56:24;;;;;;;0.00;0.00;;;;;;;-145.06;100.00;53815.44;10273160;28;20043;-82
2023/02/13 17:01:24;;;;;;;0.00;0.00;;;;;;;-145.06;100.00;53868.09;10276441;28;20095;-82
2023/02/13 17:06:24;;;;;;;0.00;0.00;;;;;;;-145.06;100.00;53864.03;10286201;28;20453;-82
2023/02/13 17:11:26;;;;;;;0.00;0.00;;;;;;;-145.06;100.00;53851.88;10276300;28;20061;-81
2023/02/13 17:16:27;;;;;;;0.00;0.00;;;;;;;-145.06;100.00;53849.84;10266593;28;20486;-82
2023/02/13 17:21:27;;;;;;;0.00;0.00;;;;;;;-145.06;100.00;53884.28;10285199;28;20035;-82
2023/02/13 17:26:27;;;;;;;0.00;0.00;;;;;;;-145.06;100.00;53896.44;10295605;28;20039;-82
2023/02/13 17:31:28;;;;;;;0.10;0.10;;;;;;;-145.06;100.00;53831.63;10300273;28;20372;-82
2023/02/13 17:36:28;;;;;;;0.00;0.00;;;;;;;-145.06;100.00;53831.63;10289422;28;20046;-82
2023/02/13 17:41:28;;;;;;;0.00;0.00;;;;;;;-145.06;100.00;53884.28;10283748;28;20031;-82
2023/02/13 17:46:29;;;;;;;0.00;0.00;;;;;;;-145.06;100.00;53859.97;10276604;28;20058;-82
2023/02/13 17:51:30;;;;;;;0.00;0.00;;;;;;;-145.06;100.00;53841.75;10282738;28;20259;-82
2023/02/13 17:56:31;;;;;;;0.00;0.00;;;;;;;-145.06;100.00;53855.94;10296963;28;20035;-82
2023/02/13 18:01:31;;;;;;;0.00;0.00;;;;;;;-145.06;100.00;53876.19;10288612;28;20039;-81
2023/02/13 18:06:31;;;;;;;0.00;0.00;;;;;;;-145.06;100.00;53878.22;10260930;28;20035;-82
2023/02/13 18:11:31;;;;;;;0.00;0.00;;;;;;;-145.06;100.00;53900.50;10268948;28;20414;-82
2023/02/13 18:16:32;;;;;;;0.00;0.00;;;;;;;-145.06;100.00;53884.28;10290544;28;20039;-82
2023/02/13 18:21:32;;;;;;;0.10;0.10;;;;;;;-145.06;100.00;53882.25;10285363;28;20035;-82
2023/02/13 18:26:33;;;;;;;0.00;0.00;;;;;;;-145.06;100.00;53864.03;10264187;28;20031;-82
2023/02/13 18:31:34;;;;;;;0.00;0.00;;;;;;;-145.06;100.00;53876.19;10286788;28;20038;-80
2023/02/13 18:36:34;;;;;;;0.00;0.00;;;;;;;-145.06;100.00;53898.47;10291644;28;20034;-80
2023/02/13 18:41:34;;;;;;;0.00;0.00;;;;;;;-145.06;100.00;53874.16;10285935;28;20034;-82
2023/02/13 18:46:35;;;;;;;0.00;0.00;;;;;;;-145.06;100.00;53880.22;10280314;28;20502;-82
2023/02/13 18:51:35;;;;;;;0.00;0.00;;;;;;;-145.06;100.00;53853.91;10285430;28;20618;-81
2023/02/13 18:56:35;;;;;;;0.00;0.00;;;;;;;-145.06;100.00;53868.09;10290638;28;20034;-82
2023/02/13 19:01:36;;;;;;;0.00;0.00;;;;;;;-145.06;100.00;53851.88;10281295;28;20079;-82
2023/02/13 19:06:41;;;;;;;0.00;0.00;;;;;;;-145.06;100.00;53884.28;10285754;28;20030;-80
2023/02/13 19:11:43;;;;;;;0.00;0.00;;;;;;;-145.06;100.00;53888.34;10287299;28;20294;-82
2023/02/13 19:16:43;;;;;;;0.00;0.00;;;;;;;-145.06;100.00;53866.06;10288784;28;20046;-82
2023/02/13 19:21:43;;;;;;;0.00;0.00;;;;;;;-145.06;100.00;53880.22;10268588;28;20034;-82
2023/02/13 19:26:44;;;;;;;0.10;0.10;;;;;;;-145.06;100.00;53855.94;10263635;28;20345;-82
2023/02/13 19:31:44;;;;;;;0.00;0.00;;;;;;;-145.06;100.00;53864.03;10275519;28;20030;-82
2023/02/13 19:36:45;;;;;;;0.00;0.00;;;;;;;-145.06;100.00;53878.22;10271200;28;20468;-82
2023/02/13 19:41:45;;;;;;;0.00;0.00;;;;;;;-145.06;100.00;53872.13;10262305;28;20027;-81
2023/02/13 19:46:45;;;;;;;0.00;0.00;;;;;;;-145.06;100.00;53874.16;10265031;28;20126;-81
2023/02/13 19:51:46;;;;;;;0.00;0.00;;;;;;;-145.06;100.00;53855.94;10274746;28;20023;-82
2023/02/13 19:56:46;;;;;;;0.00;0.00;;;;;;;-145.06;100.00;53864.03;10277336;28;20521;-82
2023/02/13 20:01:46;;;;;;;0.00;0.00;;;;;;;-145.06;100.00;53900.50;10279248;28;20380;-81
2023/02/13 20:06:48;;;;;;;0.00;0.00;;;;;;;-145.06;100.00;53870.09;10267771;28;20027;-81
2023/02/13 20:11:49;;;;;;;0.00;0.00;;;;;;;-145.06;100.00;53886.31;10271844;28;20385;-82
2023/02/13 20:16:49;;;;;;;0.00;0.00;;;;;;;-145.06;100.00;53872.13;10288502;28;20023;-82
2023/02/13 20:21:50;;;;;;;0.00;0.00;;;;;;;-145.06;100.00;53864.03;10303234;28;20157;-82
2023/02/13 20:26:50;;;;;;;0.00;0.00;;;;;;;-145.06;100.00;53872.13;10294697;23;20030;-82
2023/02/13 20:31:50;;;;;;;0.00;0.00;;;;;;;-145.06;100.00;53892.38;10324903;28;20356;-81
2023/02/13 20:36:51;;;;;;;0.00;0.00;;;;;;;-145.06;100.00;53888.34;10323461;28;20292;-81
2023/02/13 20:41:51;;;;;;;0.13;0.13;;;;;;;-145.06;100.00;53849.84;10317936;28;20128;-81
2023/02/13 20:46:52;;;;;;;0.00;0.00;;;;;;;-145.06;100.00;53855.94;10341572;28;20045;-81
2023/02/13 20:51:53;;;;;;;0.00;0.00;;;;;;;-145.06;100.00;53855.94;10341766;28;20034;-82
2023/02/13 20:56:53;;;;;;;0.00;0.00;;;;;;;-145.06;100.00;53870.09;10312583;28;20030;-82
2023/02/13 21:01:53;;;;;;;0.00;0.00;;;;;;;-145.06;100.00;53855.94;10341348;28;20030;-82
2023/02/13 21:06:54;;;;;;;0.00;0.00;;;;;;;-145.06;100.00;53892.38;10323205;28;20042;-82
2023/02/13 21:11:54;;;;;;;0.00;0.00;;;;;;;-145.06;100.00;53890.38;10319647;28;20776;-82
2023/02/13 21:16:55;;;;;;;0.00;0.00;;;;;;;-145.06;100.00;53872.13;10339327;28;20038;-83
2023/02/13 21:22:09;;;;;;;0.00;0.00;;;;;;;-145.06;100.00;53908.59;10314987;28;20026;-82
2023/02/13 21:27:10;;;;;;;0.00;0.00;;;;;;;-145.06;100.00;53847.84;10320797;28;20045;-82
2023/02/13 21:32:10;;;;;;;0.00;0.00;;;;;;;-145.06;100.00;53870.09;10322032;28;20397;-82
2023/02/13 21:37:10;;;;;;;0.00;0.00;;;;;;;-145.06;100.00;53894.41;10316567;28;20042;-82
2023/02/13 21:42:11;;;;;;;0.10;0.10;;;;;;;-145.06;100.00;53888.34;10339124;28;20031;-82
2023/02/13 21:47:11;;;;;;;0.00;0.00;;;;;;;-145.06;100.00;53864.03;10320795;28;20042;-81
2023/02/13 21:52:11;;;;;;;0.00;0.00;;;;;;;-145.06;100.00;53855.94;10331089;28;20026;-82
2023/02/13 21:57:12;;;;;;;0.00;0.00;;;;;;;-145.06;100.00;53841.75;10321830;28;20500;-82
2023/02/13 22:02:12;;;;;;;0.00;0.00;;;;;;;-145.06;100.00;53864.03;10322361;28;20484;-82
2023/02/13 22:07:12;;;;;;;0.00;0.00;;;;;;;-145.06;100.00;53886.31;10316146;28;20493;-82
2023/02/13 22:12:12;;;;;;;0.00;0.00;;;;;;;-145.06;100.00;53876.19;10320857;28;20069;-82
2023/02/13 22:17:13;;;;;;;0.00;0.00;;;;;;;-145.06;100.00;53868.09;10338075;28;20117;-83
2023/02/13 22:22:14;;;;;;;0.00;0.00;;;;;;;-145.06;100.00;53843.78;10333772;28;20097;-82
2023/02/13 22:27:14;;;;;;;0.00;0.00;;;;;;;-145.06;100.00;53855.94;10319540;28;20133;-82
2023/02/13 22:32:15;;;;;;;0.00;0.00;;;;;;;-145.06;100.00;53845.81;10319892;28;20154;-82
2023/02/13 22:37:15;;;;;;;0.00;0.00;;;;;;;-145.06;100.00;53847.84;10317133;28;20384;-82
2023/02/13 22:42:16;;;;;;;0.10;0.10;;;;;;;-145.06;100.00;53868.09;10335596;28;20383;-82
2023/02/13 22:47:16;;;;;;;0.00;0.00;;;;;;;-145.06;100.00;53892.38;10316106;28;20540;-82
2023/02/13 22:52:16;;;;;;;0.00;0.00;;;;;;;-145.06;100.00;53900.50;10329152;28;20038;-82
2023/02/13 22:57:16;;;;;;;0.08;0.08;;;;;;;-145.06;100.00;53870.09;10336216;28;20042;-81
2023/02/13 23:02:17;;;;;;;0.00;0.00;;;;;;;-145.06;100.00;53882.25;10331910;28;20121;-82
2023/02/13 23:07:17;;;;;;;0.00;0.00;;;;;;;-145.06;100.00;53880.22;10330922;28;20042;-81
2023/02/13 23:12:37;;;;;;;0.00;0.00;;;;;;;-145.06;100.00;53849.84;10315477;28;20400;-82
2023/02/13 23:22:57;;;;;;;0.00;0.00;;;;;;;-145.06;100.00;53864.03;10336182;28;20038;-82
2023/02/13 23:27:57;;;;;;;0.00;0.00;;;;;;;-145.06;100.00;53825.56;10315466;28;20039;-82
2023/02/13 23:32:59;;;;;;;0.00;0.00;;;;;;;-145.06;100.00;53874.16;10331018;28;20034;-82
2023/02/13 23:37:59;;;;;;;0.00;0.00;;;;;;;-145.06;100.00;53872.13;10335219;28;20092;-82
2023/02/13 23:42:59;;;;;;;0.00;0.00;;;;;;;-145.06;100.00;53843.78;10321995;28;20088;-82